Terminal Aerodrome Forecast
Issued by NWS Twin Cities, MN

Home | Current Version | Previous Version | Graphics & Text | Print | Product List | Glossary On
Versions: 1 2 3 4 5 6 7 8 9 10 11 12 13 14 15 16 17 18 19 20 21 22 23 24 25 26 27 28
138
FTUS43 KMPX 211743
TAFMSP
TAF
KMSP 211743Z 2118/2224 VRB03KT P6SM SCT080 BKN150
     FM212000 VRB03KT P6SM VCTS SCT020CB BKN050
     FM212300 31006KT P6SM BKN070
     FM220500 32006KT P6SM SKC
     FM221600 32014G22KT P6SM FEW060=

USA.gov is the U.S. government's official web portal to all federal, state and local government web resources and services.